createdAt,value
2018-11-28T00:00:20.302Z,15.50
2018-11-28T00:02:48.773Z,16.05
2018-11-28T00:05:17.096Z,16.90
2018-11-28T00:07:45.414Z,15.90
2018-11-28T00:10:14.564Z,15.75
2018-11-28T00:15:39.480Z,16.75
2018-11-28T00:18:07.813Z,15.18
2018-11-28T00:20:36.198Z,18.02
2018-11-28T00:23:04.641Z,17.85
2018-11-28T00:25:32.951Z,17.65
2018-11-28T00:28:01.268Z,17.23
2018-11-28T00:30:29.604Z,15.95
2018-11-28T00:32:57.925Z,17.85
2018-11-28T00:35:26.276Z,17.75
2018-11-28T00:37:54.656Z,17.90
2018-11-28T00:40:23.703Z,16.17
2018-11-28T00:42:52.259Z,18.45
2018-11-28T00:45:23.786Z,17.60
2018-11-28T00:47:52.101Z,17.37
2018-11-28T00:50:23.549Z,17.10
2018-11-28T00:52:51.872Z,14.70
2018-11-28T00:55:20.197Z,17.80
2018-11-28T00:57:48.504Z,16.90
2018-11-28T01:00:20.011Z,16.50
2018-11-28T01:02:48.693Z,18.23
2018-11-28T01:05:17.080Z,15.75
2018-11-28T01:07:46.118Z,16.95
2018-11-28T01:10:17.580Z,16.23
2018-11-28T01:12:46.020Z,16.90
2018-11-28T01:15:15.354Z,16.10
2018-11-28T01:17:43.739Z,15.65
2018-11-28T01:20:14.553Z,16.75
2018-11-28T01:22:42.888Z,15.85
2018-11-28T01:25:12.152Z,13.72
2018-11-28T01:27:40.578Z,16.77
2018-11-28T01:30:11.286Z,14.68
2018-11-28T01:32:39.722Z,15.15
2018-11-28T01:35:10.321Z,15.53
2018-11-28T01:37:39.234Z,13.62
2018-11-28T01:40:13.441Z,15.20
2018-11-28T01:42:41.853Z,12.75
2018-11-28T01:45:11.698Z,14.03
2018-11-28T01:47:40.098Z,13.58
2018-11-28T01:50:10.062Z,13.90
2018-11-28T01:52:38.429Z,12.15
2018-11-28T01:55:08.393Z,13.30
2018-11-28T01:57:36.887Z,13.58
2018-11-28T02:00:37.276Z,14.18
2018-11-28T02:03:05.833Z,13.62
2018-11-28T02:05:34.159Z,14.10
2018-11-28T02:08:02.549Z,13.10
2018-11-28T02:10:30.890Z,14.38
2018-11-28T02:12:59.187Z,15.15
2018-11-28T02:15:28.133Z,14.87
2018-11-28T02:17:57.248Z,15.25
2018-11-28T02:20:25.548Z,15.98
2018-11-28T02:22:53.873Z,15.80
2018-11-28T02:25:22.272Z,17.25
2018-11-28T02:27:50.714Z,16.35
2018-11-28T02:30:19.938Z,14.05
2018-11-28T02:32:49.151Z,15.90
2018-11-28T02:35:18.124Z,16.32
2018-11-28T02:37:46.576Z,16.50
2018-11-28T02:40:15.867Z,15.20
2018-11-28T02:42:44.465Z,14.98
2018-11-28T02:45:15.393Z,15.78
2018-11-28T02:47:43.743Z,14.90
2018-11-28T02:50:12.073Z,15.40
2018-11-28T02:52:40.519Z,14.45
2018-11-28T02:55:10.092Z,15.80
2018-11-28T02:57:38.733Z,17.35
2018-11-28T03:00:11.736Z,16.50
2018-11-28T03:02:40.710Z,17.70
2018-11-28T03:05:10.450Z,17.05
2018-11-28T03:07:38.833Z,17.10
2018-11-28T03:10:12.476Z,17.25
2018-11-28T03:12:40.794Z,17.52
2018-11-28T03:15:11.075Z,15.13
2018-11-28T03:17:39.406Z,16.25
2018-11-28T03:20:09.166Z,16.77
2018-11-28T03:22:37.622Z,17.32
2018-11-28T03:25:07.231Z,18.20
2018-11-28T03:27:35.557Z,15.90
2018-11-28T03:30:05.057Z,16.57
2018-11-28T03:32:33.482Z,16.90
2018-11-28T03:35:01.863Z,17.30
2018-11-28T03:37:30.320Z,16.12
2018-11-28T03:39:58.764Z,15.20
2018-11-28T03:42:27.209Z,14.25
2018-11-28T03:44:55.597Z,16.35
2018-11-28T03:47:24.006Z,17.15
2018-11-28T03:49:52.400Z,16.30
2018-11-28T03:52:20.814Z,15.80
2018-11-28T03:54:49.218Z,16.52
2018-11-28T03:57:17.656Z,16.82
2018-11-28T03:59:46.086Z,15.90
2018-11-28T04:02:14.521Z,16.52
2018-11-28T04:04:42.958Z,16.10
2018-11-28T04:07:11.421Z,16.35
2018-11-28T04:09:39.849Z,15.48
2018-11-28T04:12:08.256Z,15.25
2018-11-28T04:14:36.756Z,16.48
2018-11-28T04:17:05.491Z,16.17
2018-11-28T04:19:33.962Z,15.85
2018-11-28T04:22:02.379Z,16.07
2018-11-28T04:24:30.845Z,16.55
2018-11-28T04:26:59.273Z,16.07
2018-11-28T04:29:27.585Z,16.45
2018-11-28T04:31:56.044Z,16.40
2018-11-28T04:34:24.453Z,16.80
2018-11-28T04:36:52.889Z,15.48
2018-11-28T04:39:21.328Z,15.15
2018-11-28T04:41:49.941Z,15.10
2018-11-28T04:44:18.352Z,16.70
2018-11-28T04:46:46.839Z,17.40
2018-11-28T04:49:15.282Z,14.15
2018-11-28T04:51:43.709Z,16.15
2018-11-28T04:54:12.241Z,16.05
2018-11-28T04:56:40.677Z,16.45
2018-11-28T04:59:09.106Z,16.02
2018-11-28T05:01:37.572Z,15.70
2018-11-28T05:04:07.028Z,16.35
2018-11-28T05:07:42.628Z,16.12
2018-11-28T05:10:12.930Z,17.23
2018-11-28T05:12:41.666Z,16.37
2018-11-28T05:15:11.166Z,17.65
2018-11-28T05:17:39.673Z,15.88
2018-11-28T05:20:10.275Z,17.02
2018-11-28T05:22:38.712Z,16.05
2018-11-28T05:25:22.682Z,15.93
2018-11-28T05:27:52.094Z,15.68
2018-11-28T05:30:23.978Z,16.65
2018-11-28T05:32:52.310Z,17.42
2018-11-28T05:35:32.354Z,16.30
2018-11-28T05:38:01.141Z,16.95
2018-11-28T05:40:29.551Z,16.42
2018-11-28T05:42:58.047Z,16.70
2018-11-28T05:45:26.500Z,15.38
2018-11-28T05:47:55.234Z,16.40
2018-11-28T05:50:23.593Z,15.35
2018-11-28T05:52:52.065Z,16.23
2018-11-28T05:55:21.501Z,15.98
2018-11-28T05:57:50.013Z,16.20
2018-11-28T06:00:33.727Z,16.12
2018-11-28T06:03:02.166Z,17.00
2018-11-28T06:05:30.781Z,15.50
2018-11-28T06:07:59.233Z,17.12
2018-11-28T06:10:27.705Z,16.10
2018-11-28T06:12:56.234Z,16.50
2018-11-28T06:15:36.137Z,16.62
2018-11-28T06:18:28.585Z,16.40
2018-11-28T06:21:17.484Z,18.57
2018-11-28T06:27:32.756Z,17.82
2018-11-28T06:30:11.717Z,17.90
2018-11-28T06:32:51.264Z,17.95
2018-11-28T06:35:15.886Z,19.20
2018-11-28T06:37:45.172Z,20.10
2018-11-28T06:40:14.497Z,20.17
2018-11-28T06:42:44.711Z,17.10
2018-11-28T06:45:15.735Z,19.42
2018-11-28T06:47:45.698Z,18.77
2018-11-28T06:50:15.558Z,17.70
2018-11-28T06:52:46.343Z,17.80
2018-11-28T06:55:17.386Z,17.00
2018-11-28T06:57:46.230Z,18.10
2018-11-28T07:00:17.286Z,19.45
2018-11-28T07:02:47.037Z,17.77
2018-11-28T07:05:17.169Z,18.87
2018-11-28T07:07:47.827Z,18.87
2018-11-28T07:10:21.122Z,16.93
2018-11-28T07:15:34.579Z,18.02
2018-11-28T07:18:19.623Z,19.95
2018-11-28T07:20:48.795Z,17.50
2018-11-28T07:23:23.778Z,18.05
2018-11-28T07:25:54.923Z,16.37
2018-11-28T07:28:30.824Z,19.10
2018-11-28T07:31:04.945Z,17.00
2018-11-28T07:33:42.828Z,17.80
2018-11-28T07:36:13.948Z,16.67
2018-11-28T07:38:44.742Z,16.70
2018-11-28T07:41:14.716Z,16.52
2018-11-28T07:43:46.753Z,17.23
2018-11-28T07:46:18.477Z,17.85
2018-11-28T07:48:54.873Z,15.75
2018-11-28T07:51:25.985Z,16.82
2018-11-28T07:54:03.507Z,16.15
2018-11-28T07:56:42.931Z,15.95
2018-11-28T07:59:14.176Z,16.02
2018-11-28T08:01:46.508Z,16.20
2018-11-28T08:04:16.115Z,15.70
2018-11-28T08:06:50.680Z,17.12
2018-11-28T08:09:24.189Z,15.10
2018-11-28T08:11:57.477Z,13.60
2018-11-28T08:17:08.399Z,15.08
2018-11-28T08:19:40.183Z,14.50
2018-11-28T08:22:17.561Z,13.75
2018-11-28T08:24:53.171Z,14.60
2018-11-28T08:27:22.623Z,14.10
2018-11-28T08:29:59.997Z,14.25
2018-11-28T08:32:33.805Z,15.38
2018-11-28T08:35:06.091Z,14.93
2018-11-28T08:37:35.275Z,16.52
2018-11-28T08:40:15.374Z,14.93
2018-11-28T08:42:44.540Z,15.43
2018-11-28T08:48:06.250Z,14.75
2018-11-28T08:50:35.902Z,15.63
2018-11-28T08:53:04.370Z,13.30
2018-11-28T08:55:32.844Z,14.30
2018-11-28T08:58:01.301Z,15.58
2018-11-28T09:00:29.757Z,14.63
2018-11-28T09:02:58.694Z,13.60
2018-11-28T09:05:27.140Z,15.13
2018-11-28T09:07:55.578Z,14.18
2018-11-28T09:10:24.081Z,13.18
2018-11-28T09:12:52.597Z,14.03
2018-11-28T09:15:24.903Z,14.80
2018-11-28T09:17:53.395Z,15.50
2018-11-28T09:20:21.817Z,14.23
2018-11-28T09:22:51.141Z,13.75
2018-11-28T09:25:19.906Z,13.13
2018-11-28T09:27:50.254Z,13.05
2018-11-28T09:30:19.392Z,12.55
2018-11-28T09:32:48.536Z,13.70
2018-11-28T09:35:17.249Z,14.83
2018-11-28T09:37:46.158Z,14.30
2018-11-28T09:40:18.157Z,15.17
2018-11-28T09:42:46.951Z,15.53
2018-11-28T09:45:16.204Z,14.35
2018-11-28T09:47:44.698Z,13.85
2018-11-28T09:50:16.136Z,14.05
2018-11-28T09:52:44.578Z,14.07
2018-11-28T09:55:15.997Z,13.55
2018-11-28T09:57:44.448Z,14.20
2018-11-28T10:00:16.513Z,14.07
2018-11-28T10:02:45.952Z,13.30
2018-11-28T10:05:19.159Z,13.78
2018-11-28T10:07:47.558Z,13.07
2018-11-28T10:10:16.402Z,11.07
2018-11-28T10:12:46.899Z,13.20
2018-11-28T10:15:19.461Z,13.50
2018-11-28T10:17:48.067Z,11.53
2018-11-28T10:20:17.142Z,13.33
2018-11-28T10:22:45.693Z,11.80
2018-11-28T10:25:18.897Z,13.20
2018-11-28T10:27:48.468Z,12.37
2018-11-28T10:30:20.950Z,12.60
2018-11-28T10:32:49.961Z,12.07
2018-11-28T10:35:18.420Z,11.43
2018-11-28T10:37:46.957Z,10.70
2018-11-28T10:40:17.149Z,11.20
2018-11-28T10:42:46.186Z,11.70
2018-11-28T10:45:15.749Z,11.83
2018-11-28T10:47:44.154Z,12.10
2018-11-28T10:50:14.320Z,10.93
2018-11-28T10:52:42.850Z,10.53
2018-11-28T10:55:16.270Z,10.37
2018-11-28T10:57:44.788Z,10.80
2018-11-28T11:00:24.313Z,10.67
2018-11-28T11:02:58.141Z,10.70
2018-11-28T11:05:31.984Z,10.50
2018-11-28T11:08:06.397Z,11.10
2018-11-28T11:10:41.540Z,12.03
2018-11-28T11:13:15.372Z,11.33
2018-11-28T11:15:43.785Z,11.40
2018-11-28T11:18:12.580Z,10.93
2018-11-28T11:20:40.998Z,11.30
2018-11-28T11:23:09.570Z,12.13
2018-11-28T11:25:38.004Z,10.80
2018-11-28T11:28:06.760Z,11.97
2018-11-28T11:30:35.244Z,11.97
2018-11-28T11:33:03.643Z,12.23
2018-11-28T11:35:32.209Z,10.93
2018-11-28T11:38:00.561Z,10.90
2018-11-28T11:40:29.037Z,11.03
2018-11-28T11:42:57.488Z,12.40
2018-11-28T11:45:25.958Z,11.47
2018-11-28T11:47:54.459Z,11.40
2018-11-28T11:50:22.950Z,10.80
2018-11-28T11:52:52.206Z,11.30
2018-11-28T11:55:21.850Z,12.90
2018-11-28T11:57:50.486Z,12.27
2018-11-28T12:00:20.964Z,12.50
2018-11-28T12:02:53.142Z,11.17
2018-11-28T12:05:21.662Z,10.90
2018-11-28T12:07:50.158Z,12.20
2018-11-28T12:10:18.561Z,11.80
2018-11-28T12:12:51.662Z,11.70
2018-11-28T12:15:16.532Z,12.23
2018-11-28T12:17:46.311Z,12.50
2018-11-28T12:20:16.404Z,11.60
2018-11-28T12:22:45.389Z,14.13
2018-11-28T12:25:13.866Z,14.03
2018-11-28T12:27:42.346Z,13.10
2018-11-28T12:30:12.284Z,13.13
2018-11-28T12:32:40.892Z,13.20
2018-11-28T12:35:12.650Z,13.93
2018-11-28T12:37:41.606Z,14.00
2018-11-28T12:40:14.514Z,13.17
2018-11-28T12:42:45.567Z,12.30
2018-11-28T12:45:16.816Z,13.30
2018-11-28T12:47:46.037Z,13.80
2018-11-28T12:50:17.711Z,13.63
2018-11-28T12:52:46.155Z,13.87
2018-11-28T12:55:14.665Z,13.40
2018-11-28T12:57:43.245Z,13.50
2018-11-28T13:00:13.061Z,14.20
2018-11-28T13:02:41.642Z,15.00
2018-11-28T13:05:11.828Z,15.83
2018-11-28T13:07:40.362Z,15.27
2018-11-28T13:10:13.935Z,14.50
2018-11-28T13:12:42.678Z,15.60
2018-11-28T13:15:13.986Z,15.67
2018-11-28T13:17:42.676Z,15.70
2018-11-28T13:20:15.813Z,15.60
2018-11-28T13:22:44.747Z,15.53
2018-11-28T13:25:15.080Z,15.43
2018-11-28T13:27:43.748Z,16.07
2018-11-28T13:30:15.716Z,16.97
2018-11-28T13:32:44.569Z,16.37
2018-11-28T13:35:15.049Z,16.80
2018-11-28T13:37:44.558Z,16.10
2018-11-28T13:40:13.920Z,15.00
2018-11-28T13:42:42.504Z,16.43
2018-11-28T13:45:17.834Z,16.48
2018-11-28T13:47:47.409Z,16.02
2018-11-28T13:50:15.916Z,16.10
2018-11-28T13:52:44.317Z,15.50
2018-11-28T13:57:48.872Z,16.30
2018-11-28T14:00:17.352Z,16.63
2018-11-28T14:02:45.895Z,15.60
2018-11-28T14:05:14.436Z,16.65
2018-11-28T14:07:42.874Z,17.10
2018-11-28T14:10:12.169Z,18.10
2018-11-28T14:12:40.658Z,17.75
2018-11-28T14:15:13.449Z,18.05
2018-11-28T14:17:42.157Z,18.32
2018-11-28T14:20:11.391Z,17.62
2018-11-28T14:22:40.227Z,17.50
2018-11-28T14:25:10.741Z,16.95
2018-11-28T14:27:39.232Z,17.30
2018-11-28T14:30:20.142Z,18.55
2018-11-28T14:32:48.596Z,16.27
2018-11-28T14:35:17.187Z,16.97
2018-11-28T14:37:45.653Z,18.70
2018-11-28T14:40:18.701Z,18.55
2018-11-28T14:42:48.382Z,18.60
2018-11-28T14:45:17.761Z,17.60
2018-11-28T14:47:46.697Z,17.17
2018-11-28T14:50:15.969Z,18.23
2018-11-28T14:52:44.697Z,17.37
2018-11-28T14:55:14.345Z,17.92
2018-11-28T14:57:42.873Z,17.32
2018-11-28T15:00:15.683Z,18.67
2018-11-28T15:02:44.359Z,17.77
2018-11-28T15:05:54.763Z,17.52
2018-11-28T15:08:23.280Z,17.80
2018-11-28T15:11:02.133Z,19.45
2018-11-28T15:13:30.474Z,19.12
2018-11-28T15:15:58.925Z,18.20
2018-11-28T15:18:28.259Z,20.97
2018-11-28T15:20:56.594Z,20.50
2018-11-28T15:23:24.897Z,18.82
2018-11-28T15:25:53.231Z,20.77
2018-11-28T15:28:21.544Z,20.68
2018-11-28T15:30:49.894Z,21.45
2018-11-28T15:33:18.225Z,21.62
2018-11-28T15:35:46.554Z,20.92
2018-11-28T15:38:14.929Z,20.48
2018-11-28T15:40:43.246Z,21.57
2018-11-28T15:43:11.606Z,22.45
2018-11-28T15:45:39.967Z,20.12
2018-11-28T15:48:08.312Z,22.87
2018-11-28T15:50:36.624Z,21.10
2018-11-28T15:53:05.083Z,22.10
2018-11-28T15:55:33.467Z,20.70
2018-11-28T15:58:02.061Z,22.70
2018-11-28T16:00:30.384Z,22.55
2018-11-28T16:02:58.720Z,21.52
2018-11-28T16:05:27.097Z,21.07
2018-11-28T16:07:55.576Z,23.18
2018-11-28T16:10:29.179Z,21.07
2018-11-28T16:12:57.569Z,19.42
2018-11-28T16:15:27.563Z,21.65
2018-11-28T16:17:55.913Z,23.05
2018-11-28T16:20:24.258Z,22.30
2018-11-28T16:22:52.599Z,20.88
2018-11-28T16:25:21.909Z,22.65
2018-11-28T16:27:50.247Z,22.30
2018-11-28T16:30:18.595Z,21.55
2018-11-28T16:32:47.059Z,21.55
2018-11-28T16:35:16.432Z,22.37
2018-11-28T16:37:44.757Z,23.50
2018-11-28T16:40:14.857Z,22.87
2018-11-28T16:42:43.309Z,24.50
2018-11-28T16:45:13.980Z,21.05
2018-11-28T16:47:42.306Z,24.50
2018-11-28T16:50:11.264Z,25.12
2018-11-28T16:52:39.651Z,23.42
2018-11-28T16:55:09.356Z,23.30
2018-11-28T16:57:37.808Z,22.55
2018-11-28T17:00:25.603Z,23.18
2018-11-28T17:02:54.621Z,22.40
2018-11-28T17:05:23.349Z,23.62
2018-11-28T17:07:52.110Z,22.67
2018-11-28T17:10:21.586Z,21.97
2018-11-28T17:12:50.534Z,22.52
2018-11-28T17:15:19.410Z,22.27
2018-11-28T17:17:47.724Z,23.67
2018-11-28T17:20:18.033Z,24.43
2018-11-28T17:22:46.668Z,23.40
2018-11-28T17:25:21.177Z,23.07
2018-11-28T17:27:49.494Z,21.97
2018-11-28T17:30:19.295Z,22.60
2018-11-28T17:32:48.641Z,22.40
2018-11-28T17:35:17.149Z,22.55
2018-11-28T17:37:45.580Z,22.10
2018-11-28T17:40:15.771Z,21.70
2018-11-28T17:42:45.107Z,23.25
2018-11-28T17:45:14.700Z,21.68
2018-11-28T17:47:43.218Z,23.80
2018-11-28T17:50:22.208Z,23.42
2018-11-28T17:52:54.442Z,22.55
2018-11-28T17:55:22.894Z,22.62
2018-11-28T17:57:51.401Z,22.37
2018-11-28T18:00:20.464Z,20.60
2018-11-28T18:02:48.937Z,21.23
2018-11-28T18:05:17.430Z,22.02
2018-11-28T18:07:46.626Z,22.05
2018-11-28T18:10:17.159Z,21.15
2018-11-28T18:12:57.298Z,22.50
2018-11-28T18:15:25.799Z,21.12
2018-11-28T18:17:55.657Z,21.05
2018-11-28T18:20:24.137Z,21.25
2018-11-28T18:22:52.606Z,19.25
2018-11-28T18:25:21.537Z,18.92
2018-11-28T18:27:50.019Z,21.80
2018-11-28T18:30:18.675Z,21.65
2018-11-28T18:32:47.517Z,19.60
2018-11-28T18:35:16.021Z,20.25
2018-11-28T18:37:50.214Z,20.68
2018-11-28T18:40:18.566Z,21.77
2018-11-28T18:42:46.930Z,20.32
2018-11-28T18:45:18.371Z,19.92
2018-11-28T18:47:45.771Z,21.25
2018-11-28T18:50:14.491Z,19.98
2018-11-28T18:52:42.891Z,19.60
2018-11-28T18:55:19.850Z,18.95
2018-11-28T18:57:49.670Z,21.00
2018-11-28T19:00:23.856Z,22.55
2018-11-28T19:02:52.598Z,20.30
2018-11-28T19:05:21.396Z,20.15
2018-11-28T19:07:49.736Z,19.75
2018-11-28T19:10:19.255Z,20.90
2018-11-28T19:12:47.754Z,20.45
2018-11-28T19:15:18.269Z,21.50
2018-11-28T19:17:47.109Z,22.67
2018-11-28T19:20:16.492Z,21.52
2018-11-28T19:22:45.371Z,19.67
2018-11-28T19:25:14.766Z,20.47
2018-11-28T19:27:43.411Z,21.42
2018-11-28T19:30:15.973Z,18.37
2018-11-28T19:32:44.306Z,17.65
2018-11-28T19:35:12.644Z,19.25
2018-11-28T19:37:41.719Z,19.20
2018-11-28T19:40:15.419Z,19.45
2018-11-28T19:42:43.859Z,17.45
2018-11-28T19:45:12.423Z,15.85
2018-11-28T19:47:40.951Z,17.33
2018-11-28T19:50:14.189Z,15.00
2018-11-28T19:52:42.635Z,17.15
2018-11-28T19:55:11.164Z,16.07
2018-11-28T19:57:39.672Z,17.25
2018-11-28T20:00:12.449Z,17.85
2018-11-28T20:02:40.982Z,17.70
2018-11-28T20:05:09.475Z,16.07
2018-11-28T20:07:38.108Z,15.80
2018-11-28T20:10:12.644Z,16.90
2018-11-28T20:12:41.124Z,17.10
2018-11-28T20:15:11.655Z,17.90
2018-11-28T20:17:40.030Z,19.77
2018-11-28T20:20:09.989Z,18.40
2018-11-28T20:22:38.438Z,19.55
2018-11-28T20:25:09.844Z,18.37
2018-11-28T20:27:38.337Z,18.12
2018-11-28T20:30:13.489Z,18.57
2018-11-28T20:32:42.017Z,18.32
2018-11-28T20:35:10.886Z,17.20
2018-11-28T20:37:39.873Z,13.60
2018-11-28T20:40:14.374Z,17.13
2018-11-28T20:42:51.416Z,14.80
2018-11-28T20:45:19.785Z,15.45
2018-11-28T20:47:48.138Z,16.27
2018-11-28T20:50:17.837Z,13.62
2018-11-28T20:52:47.914Z,13.98
2018-11-28T20:55:16.304Z,13.88
2018-11-28T20:57:44.664Z,15.50
2018-11-28T21:00:14.194Z,13.62
2018-11-28T21:02:42.672Z,14.10
2018-11-28T21:05:11.188Z,15.00
2018-11-28T21:07:39.616Z,16.10
2018-11-28T21:10:17.381Z,14.93
2018-11-28T21:12:45.813Z,15.60
2018-11-28T21:15:14.164Z,13.40
2018-11-28T21:17:42.965Z,14.80
2018-11-28T21:20:14.466Z,16.45
2018-11-28T21:22:43.577Z,15.05
2018-11-28T21:25:12.536Z,16.57
2018-11-28T21:27:41.049Z,15.85
2018-11-28T21:30:11.505Z,16.63
2018-11-28T21:32:40.265Z,14.07
2018-11-28T21:35:11.573Z,14.93
2018-11-28T21:37:40.285Z,16.25
2018-11-28T21:40:09.253Z,14.80
2018-11-28T21:42:37.726Z,14.87
2018-11-28T21:45:08.854Z,15.53
2018-11-28T21:47:37.333Z,15.13
2018-11-28T21:50:07.793Z,16.73
2018-11-28T21:52:36.233Z,15.10
2018-11-28T21:55:06.014Z,16.83
2018-11-28T21:57:34.475Z,16.30
2018-11-28T22:00:03.006Z,16.27
2018-11-28T22:02:31.484Z,15.38
2018-11-28T22:04:59.927Z,15.95
2018-11-28T22:07:28.341Z,15.37
2018-11-28T22:09:56.873Z,16.20
2018-11-28T22:12:25.316Z,13.95
2018-11-28T22:14:53.797Z,17.10
2018-11-28T22:17:22.256Z,15.50
2018-11-28T22:19:50.779Z,16.75
2018-11-28T22:22:19.254Z,20.50
2018-11-28T22:24:47.712Z,16.70
2018-11-28T22:27:17.326Z,16.87
2018-11-28T22:29:45.785Z,17.05
2018-11-28T22:32:14.340Z,14.07
2018-11-28T22:34:42.806Z,16.40
2018-11-28T22:37:11.228Z,14.87
2018-11-28T22:39:39.666Z,14.50
2018-11-28T22:42:08.122Z,12.40
2018-11-28T22:44:36.566Z,12.90
2018-11-28T22:47:05.141Z,13.13
2018-11-28T22:49:33.501Z,13.70
2018-11-28T22:52:01.958Z,14.37
2018-11-28T22:54:30.393Z,13.83
2018-11-28T22:56:58.836Z,14.37
2018-11-28T22:59:27.320Z,14.05
2018-11-28T23:03:01.876Z,13.45
2018-11-28T23:05:36.946Z,12.43
2018-11-28T23:08:09.168Z,12.53
2018-11-28T23:10:38.144Z,13.08
2018-11-28T23:13:07.123Z,12.03
2018-11-28T23:15:35.512Z,12.85
2018-11-28T23:18:03.841Z,12.93
2018-11-28T23:20:32.161Z,13.15
2018-11-28T23:23:00.504Z,13.83
2018-11-28T23:25:28.861Z,14.50
2018-11-28T23:27:57.201Z,14.87
2018-11-28T23:30:25.571Z,15.25
2018-11-28T23:32:54.633Z,14.87
2018-11-28T23:35:23.370Z,15.10
2018-11-28T23:37:51.709Z,15.72
2018-11-28T23:40:25.858Z,12.07
2018-11-28T23:42:54.774Z,15.80
2018-11-28T23:45:23.362Z,16.20
2018-11-28T23:47:51.709Z,15.75
2018-11-28T23:50:20.913Z,14.78
2018-11-28T23:52:49.553Z,15.58
2018-11-28T23:55:21.541Z,14.43
2018-11-28T23:57:49.863Z,16.10
